createdAt,value
2022-11-28T00:01:34.041Z,49.04
2022-11-28T00:04:02.248Z,49.09
2022-11-28T00:06:30.583Z,49.08
2022-11-28T00:08:59.465Z,48.90
2022-11-28T00:11:27.430Z,48.87
2022-11-28T00:13:55.230Z,49.02
2022-11-28T00:16:24.043Z,48.92
2022-11-28T00:18:53.588Z,49.00
2022-11-28T00:21:21.611Z,48.91
2022-11-28T00:23:49.892Z,48.87
2022-11-28T00:26:23.106Z,48.89
2022-11-28T00:28:50.971Z,48.92
2022-11-28T00:31:22.184Z,48.83
2022-11-28T00:33:50.304Z,48.87
2022-11-28T00:36:18.833Z,48.88
2022-11-28T00:38:46.679Z,48.69
2022-11-28T00:41:19.925Z,48.75
2022-11-28T00:43:48.432Z,48.76
2022-11-28T00:46:16.708Z,48.69
2022-11-28T00:48:44.517Z,48.71
2022-11-28T00:51:13.723Z,48.80
2022-11-28T00:53:42.632Z,48.76
2022-11-28T00:56:14.720Z,48.74
2022-11-28T00:58:43.608Z,48.67
2022-11-28T01:01:16.947Z,48.78
2022-11-28T01:03:47.653Z,48.63
2022-11-28T01:06:33.440Z,48.68
2022-11-28T01:09:04.798Z,48.57
2022-11-28T01:11:32.929Z,48.77
2022-11-28T01:14:01.986Z,48.66
2022-11-28T01:16:29.452Z,48.62
2022-11-28T01:18:57.683Z,48.71
2022-11-28T01:21:26.304Z,48.60
2022-11-28T01:23:53.940Z,48.87
2022-11-28T01:26:24.471Z,48.87
2022-11-28T01:28:52.345Z,49.03
2022-11-28T01:31:23.644Z,48.78
2022-11-28T01:33:52.144Z,48.66
2022-11-28T01:36:20.816Z,48.82
2022-11-28T01:38:49.209Z,48.89
2022-11-28T01:41:19.409Z,48.74
2022-11-28T01:44:07.851Z,48.84
2022-11-28T01:46:36.264Z,48.80
2022-11-28T01:49:28.001Z,48.79
2022-11-28T01:52:02.901Z,48.85
2022-11-28T01:54:33.095Z,48.77
2022-11-28T01:57:03.392Z,48.84
2022-11-28T01:59:35.478Z,48.84
2022-11-28T02:02:09.463Z,48.99
2022-11-28T02:04:37.545Z,48.80
2022-11-28T02:07:05.095Z,48.94
2022-11-28T02:09:32.719Z,48.74
2022-11-28T02:12:09.819Z,48.89
2022-11-28T02:14:42.746Z,48.79
2022-11-28T02:17:15.999Z,48.74
2022-11-28T02:20:20.487Z,48.75
2022-11-28T02:23:09.568Z,48.71
2022-11-28T02:25:52.560Z,48.88
2022-11-28T02:28:41.364Z,48.87
2022-11-28T02:31:42.043Z,48.81
2022-11-28T02:34:27.749Z,48.78
2022-11-28T02:37:05.832Z,48.81
2022-11-28T02:40:01.153Z,48.84
2022-11-28T02:42:50.644Z,48.74
2022-11-28T02:45:37.188Z,48.86
2022-11-28T02:48:13.829Z,48.82
2022-11-28T02:51:06.276Z,48.82
2022-11-28T02:53:34.979Z,48.77
2022-11-28T02:56:02.761Z,48.86
2022-11-28T02:58:30.322Z,48.67
2022-11-28T03:00:57.810Z,48.78
2022-11-28T03:03:33.185Z,48.79
2022-11-28T03:06:31.424Z,48.75
2022-11-28T03:09:05.507Z,48.72
2022-11-28T03:12:00.713Z,48.74
2022-11-28T03:14:29.556Z,48.61
2022-11-28T03:17:17.280Z,48.63
2022-11-28T03:20:07.499Z,48.66
2022-11-28T03:22:51.448Z,48.77
2022-11-28T03:25:58.000Z,48.75
2022-11-28T03:28:43.394Z,48.76
2022-11-28T03:31:16.706Z,48.66
2022-11-28T03:33:50.656Z,48.76
2022-11-28T03:36:25.248Z,48.54
2022-11-28T03:39:01.787Z,48.46
2022-11-28T03:41:57.030Z,48.58
2022-11-28T03:44:31.635Z,48.39
2022-11-28T03:47:02.079Z,48.43
2022-11-28T03:49:35.126Z,48.42
2022-11-28T03:52:06.116Z,48.60
2022-11-28T03:54:40.128Z,48.38
2022-11-28T03:57:34.588Z,48.36
2022-11-28T04:00:11.104Z,48.43
2022-11-28T04:03:15.981Z,48.48
2022-11-28T04:06:02.069Z,48.51
2022-11-28T04:08:42.207Z,48.38
2022-11-28T04:11:16.900Z,48.41
2022-11-28T04:13:50.349Z,48.33
2022-11-28T04:16:24.750Z,48.42
2022-11-28T04:19:30.443Z,48.25
2022-11-28T04:22:01.764Z,48.19
2022-11-28T04:24:41.525Z,48.20
2022-11-28T04:27:14.583Z,48.32
2022-11-28T04:29:56.292Z,48.20
2022-11-28T04:32:25.501Z,48.39
2022-11-28T04:34:59.552Z,48.16
2022-11-28T04:37:28.548Z,48.21
2022-11-28T04:39:56.720Z,48.14
2022-11-28T04:42:32.806Z,48.10
2022-11-28T04:45:08.464Z,48.12
2022-11-28T04:47:36.020Z,48.14
2022-11-28T04:50:04.098Z,48.11
2022-11-28T04:52:46.334Z,48.08
2022-11-28T04:55:33.501Z,48.12
2022-11-28T04:58:05.627Z,47.93
2022-11-28T05:00:35.374Z,47.99
2022-11-28T05:03:04.345Z,48.13
2022-11-28T05:05:31.801Z,48.04
2022-11-28T05:07:59.629Z,47.91
2022-11-28T05:10:27.054Z,48.06
2022-11-28T05:12:54.580Z,47.99
2022-11-28T05:15:21.912Z,47.95
2022-11-28T05:17:49.452Z,48.05
2022-11-28T05:20:17.148Z,48.06
2022-11-28T05:22:44.655Z,47.95
2022-11-28T05:25:12.477Z,47.94
2022-11-28T05:27:40.096Z,47.93
2022-11-28T05:30:08.213Z,47.89
2022-11-28T05:32:36.468Z,47.95
2022-11-28T05:35:04.847Z,47.98
2022-11-28T05:37:33.348Z,47.92
2022-11-28T05:40:00.651Z,47.89
2022-11-28T05:42:31.708Z,47.79
2022-11-28T05:44:59.000Z,47.88
2022-11-28T05:47:26.627Z,47.58
2022-11-28T05:49:53.909Z,47.82
2022-11-28T05:52:21.511Z,47.78
2022-11-28T05:54:49.140Z,47.87
2022-11-28T05:57:16.834Z,47.73
2022-11-28T05:59:44.383Z,47.80
2022-11-28T06:02:12.455Z,47.75
2022-11-28T06:04:41.989Z,47.81
2022-11-28T06:07:09.756Z,47.86
2022-11-28T06:09:37.237Z,47.86
2022-11-28T06:12:06.168Z,47.90
2022-11-28T06:14:34.298Z,48.21
2022-11-28T06:17:02.610Z,48.19
2022-11-28T06:19:29.927Z,48.41
2022-11-28T06:21:57.446Z,48.34
2022-11-28T06:24:24.799Z,48.50
2022-11-28T06:26:52.459Z,48.44
2022-11-28T06:29:19.765Z,48.48
2022-11-28T06:31:47.473Z,48.67
2022-11-28T06:34:14.841Z,48.53
2022-11-28T06:36:44.037Z,48.71
2022-11-28T06:39:15.974Z,48.57
2022-11-28T06:41:44.208Z,48.70
2022-11-28T06:44:15.826Z,48.60
2022-11-28T06:46:44.012Z,48.54
2022-11-28T06:49:15.083Z,48.41
2022-11-28T06:51:43.336Z,48.42
2022-11-28T06:54:10.616Z,48.24
2022-11-28T06:56:41.047Z,48.28
2022-11-28T06:59:11.868Z,48.16
2022-11-28T07:01:39.562Z,48.42
2022-11-28T07:04:06.837Z,48.29
2022-11-28T07:06:34.887Z,48.46
2022-11-28T07:09:02.484Z,48.43
2022-11-28T07:11:31.793Z,48.39
2022-11-28T07:14:01.462Z,48.29
2022-11-28T07:16:31.817Z,48.43
2022-11-28T07:19:00.470Z,48.30
2022-11-28T07:21:29.081Z,48.29
2022-11-28T07:23:58.255Z,48.34
2022-11-28T07:26:25.927Z,48.32
2022-11-28T07:28:55.884Z,48.07
2022-11-28T07:31:31.786Z,48.31
2022-11-28T07:34:01.173Z,48.29
2022-11-28T07:36:30.271Z,48.26
2022-11-28T07:38:59.804Z,48.24
2022-11-28T07:41:28.390Z,48.12
2022-11-28T07:44:01.620Z,48.20
2022-11-28T07:46:31.076Z,48.15
2022-11-28T07:48:58.885Z,48.19
2022-11-28T07:51:29.841Z,48.11
2022-11-28T07:53:58.070Z,48.07
2022-11-28T07:56:39.365Z,48.18
2022-11-28T07:59:12.062Z,48.06
2022-11-28T08:01:39.665Z,48.09
2022-11-28T08:04:09.115Z,47.88
2022-11-28T08:06:39.596Z,47.90
2022-11-28T08:09:07.668Z,47.91
2022-11-28T08:11:35.881Z,47.96
2022-11-28T08:14:03.567Z,47.85
2022-11-28T08:16:31.756Z,47.78
2022-11-28T08:19:02.835Z,47.78
2022-11-28T08:21:32.931Z,47.85
2022-11-28T08:24:02.018Z,47.90
2022-11-28T08:26:31.461Z,47.79
2022-11-28T08:29:00.697Z,47.73
2022-11-28T08:31:33.819Z,47.82
2022-11-28T08:34:03.281Z,47.60
2022-11-28T08:36:31.114Z,47.63
2022-11-28T08:39:17.076Z,47.69
2022-11-28T08:41:50.881Z,47.70
2022-11-28T08:44:18.182Z,47.71
2022-11-28T08:46:46.205Z,47.53
2022-11-28T08:49:13.507Z,47.63
2022-11-28T08:51:42.175Z,47.66
2022-11-28T08:54:09.538Z,47.49
2022-11-28T08:56:37.381Z,47.54
2022-11-28T08:59:04.709Z,47.63
2022-11-28T09:01:32.409Z,47.58
2022-11-28T09:04:00.241Z,47.50
2022-11-28T09:06:27.943Z,47.43
2022-11-28T09:08:55.249Z,47.42
2022-11-28T09:11:23.538Z,47.39
2022-11-28T09:13:51.238Z,47.26
2022-11-28T09:16:18.829Z,47.38
2022-11-28T09:18:46.156Z,47.27
2022-11-28T09:21:15.248Z,47.39
2022-11-28T09:23:44.718Z,47.32
2022-11-28T09:26:15.808Z,47.41
2022-11-28T09:28:43.776Z,47.42
2022-11-28T09:31:15.133Z,47.27
2022-11-28T09:33:43.558Z,47.36
2022-11-28T09:36:13.653Z,47.28
2022-11-28T09:38:41.606Z,47.17
2022-11-28T09:41:39.761Z,47.16
2022-11-28T09:44:16.869Z,47.20
2022-11-28T09:46:46.397Z,47.21
2022-11-28T09:49:28.656Z,47.19
2022-11-28T09:52:09.859Z,47.10
2022-11-28T09:54:50.308Z,47.18
2022-11-28T09:57:40.830Z,46.97
2022-11-28T10:00:24.312Z,47.10
2022-11-28T10:02:57.911Z,47.15
2022-11-28T10:05:36.115Z,47.07
2022-11-28T10:08:50.295Z,47.16
2022-11-28T10:12:14.110Z,47.01
2022-11-28T10:15:09.921Z,47.00
2022-11-28T10:17:50.407Z,46.82
2022-11-28T10:20:46.512Z,46.82
2022-11-28T10:23:40.423Z,46.84
2022-11-28T10:26:28.264Z,46.65
2022-11-28T10:28:58.039Z,46.80
2022-11-28T10:31:33.289Z,46.74
2022-11-28T10:34:29.809Z,46.90
2022-11-28T10:37:03.191Z,46.66
2022-11-28T10:39:30.484Z,46.83
2022-11-28T10:42:13.697Z,46.78
2022-11-28T10:45:08.480Z,46.62
2022-11-28T10:48:37.113Z,46.65
2022-11-28T10:51:15.635Z,46.76
2022-11-28T10:54:04.631Z,46.71
2022-11-28T10:57:16.225Z,46.62
2022-11-28T11:00:30.029Z,46.56
2022-11-28T11:03:02.316Z,46.62
2022-11-28T11:05:33.562Z,46.72
2022-11-28T11:08:19.077Z,46.58
2022-11-28T11:11:24.835Z,46.59
2022-11-28T11:14:02.605Z,46.47
2022-11-28T11:16:52.622Z,46.53
2022-11-28T11:19:31.587Z,46.38
2022-11-28T11:22:02.397Z,46.35
2022-11-28T11:24:30.152Z,46.37
2022-11-28T11:27:18.050Z,46.45
2022-11-28T11:29:48.207Z,46.30
2022-11-28T11:32:29.768Z,46.51
2022-11-28T11:34:59.040Z,46.28
2022-11-28T11:37:37.147Z,46.35
2022-11-28T11:40:24.576Z,46.50
2022-11-28T11:43:00.278Z,46.35
2022-11-28T11:45:34.376Z,46.32
2022-11-28T11:48:03.952Z,46.29
2022-11-28T11:50:32.995Z,46.28
2022-11-28T11:53:00.711Z,46.35
2022-11-28T11:55:30.709Z,46.35
2022-11-28T11:58:05.621Z,46.25
2022-11-28T12:00:38.423Z,46.11
2022-11-28T12:03:23.306Z,46.26
2022-11-28T12:06:13.633Z,46.16
2022-11-28T12:08:50.525Z,46.23
2022-11-28T12:11:29.334Z,46.02
2022-11-28T12:14:14.804Z,46.23
2022-11-28T12:16:45.219Z,46.03
2022-11-28T12:19:49.243Z,46.10
2022-11-28T12:22:22.760Z,46.08
2022-11-28T12:24:56.102Z,46.16
2022-11-28T12:27:47.821Z,46.14
2022-11-28T12:30:25.436Z,46.10
2022-11-28T12:33:14.576Z,46.07
2022-11-28T12:35:49.351Z,46.11
2022-11-28T12:38:28.455Z,46.17
2022-11-28T12:41:14.911Z,46.20
2022-11-28T12:44:02.164Z,46.16
2022-11-28T12:46:46.474Z,46.20
2022-11-28T12:49:28.362Z,46.03
2022-11-28T12:52:05.357Z,46.19
2022-11-28T12:55:04.520Z,46.28
2022-11-28T12:57:59.530Z,46.18
2022-11-28T13:00:29.185Z,46.24
2022-11-28T13:03:08.862Z,45.91
2022-11-28T13:06:08.829Z,46.10
2022-11-28T13:08:57.718Z,46.24
2022-11-28T13:12:08.851Z,46.14
2022-11-28T13:14:48.111Z,46.24
2022-11-28T13:17:21.857Z,46.22
2022-11-28T13:20:25.436Z,46.18
2022-11-28T13:23:14.912Z,46.07
2022-11-28T13:26:00.768Z,46.08
2022-11-28T13:28:36.192Z,46.04
2022-11-28T13:31:27.436Z,46.05
2022-11-28T13:33:56.316Z,46.04
2022-11-28T13:39:54.602Z,46.16
2022-11-28T13:43:04.441Z,46.21
2022-11-28T13:45:47.445Z,46.22
2022-11-28T13:48:57.343Z,46.21
2022-11-28T13:51:30.506Z,46.15
2022-11-28T13:54:17.213Z,46.13
2022-11-28T13:56:46.319Z,46.21
2022-11-28T13:59:21.750Z,46.21
2022-11-28T14:01:57.594Z,46.19
2022-11-28T14:04:27.855Z,46.12
2022-11-28T14:07:03.277Z,46.24
2022-11-28T14:10:05.312Z,46.22
2022-11-28T14:12:55.337Z,46.19
2022-11-28T14:16:01.724Z,46.21
2022-11-28T14:18:57.161Z,46.28
2022-11-28T14:21:56.480Z,46.38
2022-11-28T14:24:42.298Z,46.38
2022-11-28T14:27:21.057Z,46.40
2022-11-28T14:29:51.930Z,46.35
2022-11-28T14:32:39.431Z,46.39
2022-11-28T14:35:16.650Z,46.49
2022-11-28T14:37:52.969Z,46.46
2022-11-28T14:40:59.753Z,46.59
2022-11-28T14:43:29.721Z,46.41
2022-11-28T14:46:15.392Z,46.49
2022-11-28T14:48:58.421Z,46.53
2022-11-28T14:51:44.309Z,46.50
2022-11-28T14:54:29.890Z,46.51
2022-11-28T14:56:59.957Z,46.56
2022-11-28T14:59:32.885Z,46.55
2022-11-28T15:02:12.407Z,46.71
2022-11-28T15:05:01.679Z,46.63
2022-11-28T15:07:47.754Z,46.64
2022-11-28T15:10:24.151Z,46.54
2022-11-28T15:12:57.381Z,46.69
2022-11-28T15:15:25.049Z,46.63
2022-11-28T15:17:54.063Z,46.63
2022-11-28T15:20:35.772Z,46.68
2022-11-28T15:23:03.606Z,46.53
2022-11-28T15:25:37.136Z,46.75
2022-11-28T15:28:18.530Z,46.65
2022-11-28T15:30:51.641Z,46.72
2022-11-28T15:33:20.508Z,46.69
2022-11-28T15:36:15.013Z,46.77
2022-11-28T15:38:43.533Z,46.65
2022-11-28T15:41:11.317Z,46.69
2022-11-28T15:43:44.343Z,46.72
2022-11-28T15:46:19.039Z,46.70
2022-11-28T15:48:52.369Z,46.61
2022-11-28T15:51:32.735Z,46.73
2022-11-28T15:54:03.287Z,46.56
2022-11-28T15:56:31.280Z,46.49
2022-11-28T15:58:58.646Z,46.60
2022-11-28T16:01:27.878Z,46.60
2022-11-28T16:04:13.569Z,46.56
2022-11-28T16:06:43.900Z,46.58
2022-11-28T16:09:17.288Z,46.60
2022-11-28T16:11:48.266Z,46.61
2022-11-28T16:14:23.955Z,46.43
2022-11-28T16:16:51.748Z,46.46
2022-11-28T16:19:39.711Z,46.53
2022-11-28T16:22:17.130Z,46.42
2022-11-28T16:24:46.860Z,46.48
2022-11-28T16:27:34.432Z,46.36
2022-11-28T16:30:32.905Z,46.43
2022-11-28T16:33:01.158Z,46.22
2022-11-28T16:35:33.197Z,46.35
2022-11-28T16:38:16.321Z,46.22
2022-11-28T16:40:44.532Z,46.24
2022-11-28T16:43:25.847Z,46.22
2022-11-28T16:46:01.464Z,46.23
2022-11-28T16:48:33.229Z,46.18
2022-11-28T16:51:12.774Z,46.17
2022-11-28T16:54:29.777Z,45.95
2022-11-28T16:57:07.640Z,45.88
2022-11-28T16:59:35.151Z,46.00
2022-11-28T17:02:02.433Z,46.05
2022-11-28T17:04:30.959Z,45.94
2022-11-28T17:07:05.136Z,45.97
2022-11-28T17:09:33.865Z,46.13
2022-11-28T17:12:39.487Z,45.95
2022-11-28T17:15:10.278Z,45.90
2022-11-28T17:17:37.997Z,45.91
2022-11-28T17:20:06.468Z,45.81
2022-11-28T17:22:41.022Z,45.71
2022-11-28T17:25:17.784Z,45.67
2022-11-28T17:27:45.327Z,45.58
2022-11-28T17:30:17.083Z,45.75
2022-11-28T17:32:47.074Z,45.79
2022-11-28T17:35:22.112Z,45.75
2022-11-28T17:37:49.520Z,45.66
2022-11-28T17:40:36.927Z,45.83
2022-11-28T17:43:05.113Z,45.73
2022-11-28T17:45:35.490Z,45.56
2022-11-28T17:48:02.873Z,45.77
2022-11-28T17:50:30.493Z,45.76
2022-11-28T17:52:57.781Z,45.71
2022-11-28T17:55:25.468Z,45.70
2022-11-28T17:57:54.065Z,45.79
2022-11-28T18:00:21.809Z,45.63
2022-11-28T18:02:49.112Z,45.57
2022-11-28T18:05:16.956Z,45.68
2022-11-28T18:07:44.375Z,45.83
2022-11-28T18:10:12.246Z,45.62
2022-11-28T18:12:39.575Z,45.67
2022-11-28T18:15:07.455Z,45.67
2022-11-28T18:17:34.721Z,45.65
2022-11-28T18:20:02.220Z,45.58
2022-11-28T18:22:29.559Z,45.55
2022-11-28T18:24:57.084Z,45.56
2022-11-28T18:27:24.484Z,45.69
2022-11-28T18:29:53.014Z,45.76
2022-11-28T18:32:20.337Z,45.72
2022-11-28T18:34:47.931Z,45.58
2022-11-28T18:37:15.234Z,45.66
2022-11-28T18:39:43.034Z,45.73
2022-11-28T18:42:10.726Z,45.69
2022-11-28T18:44:39.127Z,45.59
2022-11-28T18:47:06.548Z,45.66
2022-11-28T18:49:34.642Z,45.46
2022-11-28T18:52:01.944Z,45.58
2022-11-28T18:54:31.049Z,45.53
2022-11-28T18:57:00.051Z,45.52
2022-11-28T18:59:27.700Z,45.51
2022-11-28T19:01:55.784Z,45.55
2022-11-28T19:04:23.602Z,45.48
2022-11-28T19:06:51.703Z,45.56
2022-11-28T19:09:19.525Z,45.52
2022-11-28T19:11:47.108Z,45.66
2022-11-28T19:14:17.060Z,45.58
2022-11-28T19:16:45.623Z,45.62
2022-11-28T19:19:13.380Z,45.51
2022-11-28T19:21:40.664Z,45.45
2022-11-28T19:24:08.508Z,45.44
2022-11-28T19:26:37.221Z,45.71
2022-11-28T19:29:05.748Z,45.87
2022-11-28T19:31:34.860Z,46.06
2022-11-28T19:34:12.615Z,46.25
2022-11-28T19:36:48.578Z,46.37
2022-11-28T19:39:22.330Z,46.41
2022-11-28T19:41:53.555Z,46.52
2022-11-28T19:44:23.924Z,46.67
2022-11-28T19:46:52.779Z,46.70
2022-11-28T19:49:23.633Z,46.69
2022-11-28T19:51:52.279Z,46.69
2022-11-28T19:54:20.285Z,46.74
2022-11-28T19:56:48.236Z,46.67
2022-11-28T19:59:16.700Z,46.83
2022-11-28T20:01:44.383Z,46.79
2022-11-28T20:04:12.085Z,46.85
2022-11-28T20:06:40.084Z,46.89
2022-11-28T20:09:10.568Z,46.88
2022-11-28T20:11:38.572Z,46.90
2022-11-28T20:14:12.008Z,46.81
2022-11-28T20:16:40.097Z,46.82
2022-11-28T20:19:07.920Z,46.78
2022-11-28T20:21:35.554Z,46.75
2022-11-28T20:24:07.399Z,46.92
2022-11-28T20:26:38.292Z,46.77
2022-11-28T20:29:06.728Z,46.92
2022-11-28T20:31:41.995Z,46.99
2022-11-28T20:34:09.707Z,46.87
2022-11-28T20:36:37.228Z,46.77
2022-11-28T20:39:05.629Z,46.80
2022-11-28T20:41:33.807Z,46.72
2022-11-28T20:44:02.112Z,46.87
2022-11-28T20:46:32.079Z,46.70
2022-11-28T20:49:02.339Z,46.78
2022-11-28T20:51:31.530Z,46.67
2022-11-28T20:54:00.047Z,46.59
2022-11-28T20:56:30.112Z,46.74
2022-11-28T20:59:00.552Z,46.70
2022-11-28T21:01:33.042Z,46.66
2022-11-28T21:04:04.378Z,46.68
2022-11-28T21:06:32.841Z,46.62
2022-11-28T21:09:00.471Z,46.64
2022-11-28T21:14:15.539Z,46.58
2022-11-28T21:16:43.775Z,46.60
2022-11-28T21:19:12.667Z,46.58
2022-11-28T21:21:40.781Z,46.58
2022-11-28T21:24:11.822Z,46.60
2022-11-28T21:26:44.181Z,46.61
2022-11-28T21:29:15.600Z,46.55
2022-11-28T21:31:44.970Z,46.47
2022-11-28T21:34:17.538Z,46.63
2022-11-28T21:36:45.349Z,46.44
2022-11-28T21:39:15.826Z,46.50
2022-11-28T21:41:43.370Z,46.31
2022-11-28T21:44:10.990Z,46.50
2022-11-28T21:46:38.300Z,46.45
2022-11-28T21:49:05.961Z,46.49
2022-11-28T21:51:33.687Z,46.63
2022-11-28T21:54:02.289Z,46.65
2022-11-28T21:56:29.942Z,46.44
2022-11-28T21:58:57.584Z,46.50
2022-11-28T22:01:24.989Z,46.81
2022-11-28T22:03:53.576Z,46.62
2022-11-28T22:06:24.882Z,46.68
2022-11-28T22:08:53.713Z,46.49
2022-11-28T22:11:21.420Z,46.59
2022-11-28T22:13:49.611Z,46.55
2022-11-28T22:16:18.477Z,46.51
2022-11-28T22:18:47.412Z,46.53
2022-11-28T22:24:06.431Z,46.52
2022-11-28T22:26:34.038Z,46.70
2022-11-28T22:29:03.864Z,46.49
2022-11-28T22:31:31.902Z,46.40
2022-11-28T22:33:59.983Z,46.28
2022-11-28T22:36:27.278Z,46.53
2022-11-28T22:38:56.764Z,46.41
2022-11-28T22:41:28.856Z,46.35
2022-11-28T22:43:59.612Z,46.46
2022-11-28T22:46:27.203Z,46.48
2022-11-28T22:48:54.961Z,46.40
2022-11-28T22:51:24.638Z,46.49
2022-11-28T22:53:56.655Z,46.45
2022-11-28T22:56:24.756Z,46.46
2022-11-28T22:58:52.342Z,46.52
2022-11-28T23:01:25.810Z,46.39
2022-11-28T23:03:55.254Z,46.63
2022-11-28T23:06:26.947Z,46.38
2022-11-28T23:08:56.677Z,46.29
2022-11-28T23:11:26.313Z,46.34
2022-11-28T23:13:54.417Z,46.54
2022-11-28T23:16:28.423Z,46.28
2022-11-28T23:18:58.401Z,46.44
2022-11-28T23:21:29.809Z,46.28
2022-11-28T23:23:57.734Z,46.35
2022-11-28T23:26:27.554Z,46.49
2022-11-28T23:28:55.573Z,46.38
2022-11-28T23:31:25.701Z,46.22
2022-11-28T23:33:53.668Z,46.34
2022-11-28T23:36:26.518Z,46.33
2022-11-28T23:38:56.500Z,46.41
2022-11-28T23:41:25.324Z,46.41
2022-11-28T23:43:53.012Z,46.45
2022-11-28T23:46:23.214Z,46.37
2022-11-28T23:48:51.291Z,46.17
2022-11-28T23:51:20.691Z,46.38
2022-11-28T23:53:49.871Z,46.25
2022-11-28T23:56:26.152Z,46.30
2022-11-28T23:58:54.645Z,46.42
